This is the latest recevied weather packets stored in our database for station/object WMSA. If no packets are shown the sender has not sent any weather packets the latest 10 day(s).
| Time | Temp. | Humidity | Pressure | Rain* | Wind** | Luminosity | Snow |
|---|---|---|---|---|---|---|---|
| 1777536584 | 32.78° C | 66% | 1006 hPa | - | - | - | - |
| 1777535377 | 33.89° C | 63% | 1006 hPa | - | - | - | - |
| 1777532985 | 35° C | 59% | 1007 hPa | - | - | - | - |
| 1777529384 | 33.89° C | 59% | 1008 hPa | - | - | - | - |
| 1777525788 | 33.89° C | 59% | 1009 hPa | - | - | - | - |
| 1777522183 | 32.78° C | 62% | 1010 hPa | - | - | - | - |
| 1777518583 | 31.67° C | 62% | 1010 hPa | - | - | - | - |
| 1777514983 | 30.56° C | 70% | 1010 hPa | - | - | - | - |
| 1777511384 | 28.89° C | 83% | 1009 hPa | - | - | - | - |
| 1777507791 | 26.67° C | 88% | 1009 hPa | - | - | - | - |
| 1777504183 | 25.56° C | 94% | 1009 hPa | - | - | - | - |
| 1777500583 | 25.56° C | 94% | 1008 hPa | - | - | - | - |
| 1777496987 | 25.56° C | 94% | 1008 hPa | - | - | - | - |
| 1777493389 | 26.67° C | 88% | 1009 hPa | - | - | - | - |
| 1777489783 | 26.67° C | 83% | 1009 hPa | - | - | - | - |
| 1777486183 | 26.67° C | 83% | 1010 hPa | - | - | - | - |
| 1777482583 | 27.78° C | 78% | 1010 hPa | - | - | - | - |
| 1777478982 | 28.89° C | 79% | 1010 hPa | - | - | - | - |
| 1777476575 | 27.78° C | 88% | 1010 hPa | - | - | - | - |
| 1777475388 | 27.78° C | 88% | 1010 hPa | - | - | - | - |
| 1777471782 | 28.89° C | 79% | 1009 hPa | - | - | - | - |
| 1777468182 | 28.89° C | 79% | 1008 hPa | - | - | - | - |
* Rain since midnight (hover to see other rain measurements)
** Current wind speed in m/s (hover to see current wind gust speed)